createdAt,value
2023-04-08T00:01:54.808Z,18.30
2023-04-08T00:04:22.311Z,17.13
2023-04-08T00:06:49.849Z,17.43
2023-04-08T00:09:17.360Z,20.00
2023-04-08T00:11:44.896Z,20.60
2023-04-08T00:14:12.461Z,20.87
2023-04-08T00:16:40.011Z,20.52
2023-04-08T00:19:07.509Z,20.10
2023-04-08T00:21:35.062Z,22.53
2023-04-08T00:24:02.617Z,20.53
2023-04-08T00:26:30.153Z,21.93
2023-04-08T00:28:58.474Z,20.17
2023-04-08T00:31:26.097Z,18.10
2023-04-08T00:33:53.543Z,18.00
2023-04-08T00:36:21.096Z,17.27
2023-04-08T00:38:48.905Z,19.30
2023-04-08T00:41:16.174Z,18.97
2023-04-08T00:43:43.771Z,20.70
2023-04-08T00:46:11.293Z,18.83
2023-04-08T00:48:38.808Z,20.20
2023-04-08T00:51:06.708Z,17.83
2023-04-08T00:53:34.244Z,22.10
2023-04-08T00:56:01.774Z,21.83
2023-04-08T00:58:29.340Z,21.90
2023-04-08T01:01:02.859Z,19.57
2023-04-08T01:03:45.082Z,18.50
2023-04-08T01:06:20.932Z,17.90
2023-04-08T01:08:48.723Z,21.12
2023-04-08T01:11:16.045Z,20.80
2023-04-08T01:13:43.560Z,21.93
2023-04-08T01:16:11.130Z,21.13
2023-04-08T01:18:38.661Z,19.47
2023-04-08T01:21:06.210Z,20.97
2023-04-08T01:23:54.902Z,18.80
2023-04-08T01:26:22.447Z,18.23
2023-04-08T01:28:50.183Z,19.10
2023-04-08T01:31:17.631Z,19.83
2023-04-08T01:33:45.105Z,20.87
2023-04-08T01:36:12.627Z,21.15
2023-04-08T01:38:40.204Z,20.97
2023-04-08T01:41:07.738Z,19.13
2023-04-08T01:43:35.263Z,17.13
2023-04-08T01:46:02.877Z,23.23
2023-04-08T01:48:30.399Z,21.33
2023-04-08T01:50:57.922Z,19.43
2023-04-08T01:53:25.483Z,18.20
2023-04-08T01:55:53.067Z,20.13
2023-04-08T01:58:20.560Z,22.40
2023-04-08T02:00:48.104Z,22.07
2023-04-08T02:03:15.886Z,21.40
2023-04-08T02:05:43.176Z,19.73
2023-04-08T02:08:11.723Z,22.33
2023-04-08T02:10:39.321Z,18.57
2023-04-08T02:13:06.799Z,21.13
2023-04-08T02:15:34.368Z,18.57
2023-04-08T02:18:01.960Z,19.97
2023-04-08T02:20:38.148Z,22.10
2023-04-08T02:23:08.466Z,21.40
2023-04-08T02:25:36.031Z,18.63
2023-04-08T02:28:06.078Z,23.53
2023-04-08T02:30:33.627Z,17.37
2023-04-08T02:33:01.217Z,20.37
2023-04-08T02:35:28.714Z,23.17
2023-04-08T02:37:56.281Z,21.33
2023-04-08T02:40:26.541Z,19.47
2023-04-08T02:42:54.058Z,21.07
2023-04-08T02:45:21.621Z,26.67
2023-04-08T02:47:49.192Z,20.63
2023-04-08T02:50:16.679Z,23.90
2023-04-08T02:52:44.233Z,23.97
2023-04-08T02:55:11.758Z,20.90
2023-04-08T02:57:39.293Z,20.30
2023-04-08T03:00:06.973Z,19.57
2023-04-08T03:02:34.637Z,23.93
2023-04-08T03:05:02.049Z,27.13
2023-04-08T03:07:29.630Z,24.00
2023-04-08T03:09:57.172Z,21.97
2023-04-08T03:12:24.696Z,23.23
2023-04-08T03:14:52.271Z,25.97
2023-04-08T03:17:19.854Z,25.30
2023-04-08T03:19:47.360Z,22.67
2023-04-08T03:22:14.905Z,26.00
2023-04-08T03:24:42.458Z,22.13
2023-04-08T03:27:09.967Z,22.10
2023-04-08T03:29:37.551Z,21.67
2023-04-08T03:32:05.195Z,20.97
2023-04-08T03:34:32.610Z,24.37
2023-04-08T03:37:00.204Z,25.07
2023-04-08T03:39:27.743Z,23.00
2023-04-08T03:41:55.265Z,23.87
2023-04-08T03:44:22.815Z,22.30
2023-04-08T03:46:50.341Z,21.00
2023-04-08T03:49:17.868Z,22.83
2023-04-08T03:51:45.413Z,22.23
2023-04-08T03:54:12.955Z,21.37
2023-04-08T03:56:40.487Z,20.47
2023-04-08T03:59:08.022Z,23.27
2023-04-08T04:01:35.581Z,20.20
2023-04-08T04:04:03.400Z,17.40
2023-04-08T04:06:30.697Z,23.87
2023-04-08T04:08:58.230Z,23.07
2023-04-08T04:11:25.756Z,21.30
2023-04-08T04:13:53.319Z,19.33
2023-04-08T04:16:20.894Z,19.97
2023-04-08T04:18:48.684Z,21.30
2023-04-08T04:21:15.951Z,18.17
2023-04-08T04:23:43.487Z,19.17
2023-04-08T04:26:11.045Z,27.57
2023-04-08T04:28:38.619Z,22.52
2023-04-08T04:31:06.191Z,19.67
2023-04-08T04:33:33.715Z,20.47
2023-04-08T04:36:01.398Z,18.90
2023-04-08T04:38:28.890Z,20.57
2023-04-08T04:40:56.426Z,21.50
2023-04-08T04:43:23.990Z,19.73
2023-04-08T04:45:51.531Z,23.17
2023-04-08T04:48:19.040Z,20.20
2023-04-08T04:50:46.652Z,21.30
2023-04-08T04:53:14.208Z,26.17
2023-04-08T04:55:41.731Z,22.67
2023-04-08T04:58:09.573Z,23.57
2023-04-08T05:00:37.128Z,22.67
2023-04-08T05:03:04.808Z,23.57
2023-04-08T05:05:32.287Z,23.03
2023-04-08T05:07:59.853Z,23.90
2023-04-08T05:10:27.388Z,22.27
2023-04-08T05:12:54.924Z,25.13
2023-04-08T05:15:22.503Z,30.77
2023-04-08T05:17:50.076Z,24.87
2023-04-08T05:20:17.715Z,23.63
2023-04-08T05:22:45.145Z,24.80
2023-04-08T05:25:12.702Z,23.77
2023-04-08T05:27:40.224Z,21.67
2023-04-08T05:30:08.718Z,23.12
2023-04-08T05:32:36.283Z,24.73
2023-04-08T05:35:03.782Z,22.63
2023-04-08T05:37:31.358Z,21.33
2023-04-08T05:39:58.884Z,23.27
2023-04-08T05:42:26.410Z,21.40
2023-04-08T05:44:54.261Z,22.60
2023-04-08T05:47:21.893Z,25.93
2023-04-08T05:49:51.186Z,25.67
2023-04-08T05:52:16.903Z,27.37
2023-04-08T05:54:44.442Z,22.10
2023-04-08T05:57:11.983Z,28.13
2023-04-08T05:59:39.596Z,23.77
2023-04-08T06:02:07.210Z,28.17
2023-04-08T06:04:34.821Z,29.00
2023-04-08T06:07:02.271Z,28.37
2023-04-08T06:09:29.879Z,22.97
2023-04-08T06:11:57.420Z,25.03
2023-04-08T06:14:24.900Z,27.23
2023-04-08T06:16:52.503Z,25.00
2023-04-08T06:19:19.996Z,24.47
2023-04-08T06:21:47.519Z,25.60
2023-04-08T06:24:18.002Z,27.70
2023-04-08T06:26:45.521Z,28.00
2023-04-08T06:29:13.051Z,28.73
2023-04-08T06:31:40.673Z,29.67
2023-04-08T06:34:08.151Z,28.03
2023-04-08T06:36:35.686Z,30.80
2023-04-08T06:39:03.300Z,35.17
2023-04-08T06:41:30.839Z,29.37
2023-04-08T06:43:58.381Z,27.17
2023-04-08T06:46:26.086Z,29.97
2023-04-08T06:48:53.468Z,31.27
2023-04-08T06:51:21.014Z,27.93
2023-04-08T06:53:48.597Z,31.67
2023-04-08T06:56:16.143Z,28.43
2023-04-08T06:58:43.666Z,27.80
2023-04-08T07:01:11.292Z,29.10
2023-04-08T07:03:38.846Z,27.90
2023-04-08T07:06:06.296Z,33.30
2023-04-08T07:08:34.133Z,29.13
2023-04-08T07:11:01.668Z,26.83
2023-04-08T07:13:29.193Z,27.67
2023-04-08T07:15:56.799Z,27.70
2023-04-08T07:18:24.315Z,28.85
2023-04-08T07:20:51.854Z,27.03
2023-04-08T07:23:19.432Z,27.67
2023-04-08T07:25:46.961Z,29.23
2023-04-08T07:28:14.492Z,32.20
2023-04-08T07:30:42.112Z,26.07
2023-04-08T07:33:09.630Z,28.33
2023-04-08T07:35:37.142Z,31.93
2023-04-08T07:38:04.708Z,35.57
2023-04-08T07:40:32.223Z,33.60
2023-04-08T07:42:59.756Z,33.83
2023-04-08T07:45:27.362Z,28.03
2023-04-08T07:47:54.908Z,32.57
2023-04-08T07:50:22.417Z,32.42
2023-04-08T07:52:50.004Z,28.50
2023-04-08T07:55:17.531Z,30.33
2023-04-08T07:57:45.072Z,30.60
2023-04-08T08:00:13.710Z,29.60
2023-04-08T08:02:41.385Z,30.40
2023-04-08T08:05:08.882Z,33.57
2023-04-08T08:07:36.440Z,43.93
2023-04-08T08:10:03.979Z,29.73
2023-04-08T08:12:31.514Z,36.07
2023-04-08T08:14:59.152Z,32.33
2023-04-08T08:17:28.115Z,35.17
2023-04-08T08:19:54.177Z,29.23
2023-04-08T08:22:21.735Z,45.00
2023-04-08T08:24:49.354Z,28.90
2023-04-08T08:27:16.908Z,30.10
2023-04-08T08:29:44.456Z,41.73
2023-04-08T08:32:11.998Z,29.77
2023-04-08T08:34:39.517Z,30.67
2023-04-08T08:37:07.141Z,29.77
2023-04-08T08:39:34.663Z,30.53
2023-04-08T08:42:02.190Z,28.27
2023-04-08T08:44:29.801Z,27.67
2023-04-08T08:46:57.408Z,27.57
2023-04-08T08:49:24.892Z,27.73
2023-04-08T08:51:52.502Z,28.60
2023-04-08T08:54:20.038Z,28.70
2023-04-08T08:56:47.576Z,28.53
2023-04-08T08:59:15.154Z,24.57
2023-04-08T09:01:42.770Z,30.48
2023-04-08T09:04:13.319Z,28.83
2023-04-08T09:06:40.745Z,29.35
2023-04-08T09:09:11.301Z,27.17
2023-04-08T09:11:38.798Z,24.37
2023-04-08T09:14:06.379Z,26.50
2023-04-08T09:16:34.169Z,22.70
2023-04-08T09:19:13.394Z,28.13
2023-04-08T09:21:43.609Z,24.10
2023-04-08T09:24:11.154Z,22.87
2023-04-08T09:26:38.741Z,24.33
2023-04-08T09:29:25.204Z,26.33
2023-04-08T09:31:36.591Z,25.43
2023-04-08T09:34:16.015Z,22.27
2023-04-08T09:36:43.543Z,24.63
2023-04-08T09:39:11.115Z,24.55
2023-04-08T09:41:38.966Z,23.03
2023-04-08T09:44:06.526Z,22.43
2023-04-08T09:46:51.641Z,22.67
2023-04-08T09:49:27.886Z,23.73
2023-04-08T09:52:07.200Z,24.63
2023-04-08T09:54:53.048Z,20.10
2023-04-08T09:57:29.794Z,25.07
2023-04-08T10:00:09.279Z,20.03
2023-04-08T10:02:37.930Z,23.03
2023-04-08T10:05:08.183Z,24.30
2023-04-08T10:07:32.910Z,19.73
2023-04-08T10:10:00.489Z,22.25
2023-04-08T10:12:28.023Z,21.00
2023-04-08T10:15:29.215Z,22.40
2023-04-08T10:17:56.787Z,22.25
2023-04-08T10:20:38.938Z,23.03
2023-04-08T10:23:09.224Z,17.33
2023-04-08T10:25:36.758Z,19.47
2023-04-08T10:28:19.070Z,18.43
2023-04-08T10:30:46.625Z,17.90
2023-04-08T10:33:14.157Z,17.60
2023-04-08T10:35:41.793Z,17.10
2023-04-08T10:38:09.297Z,18.40
2023-04-08T10:40:36.819Z,14.70
2023-04-08T10:43:04.415Z,17.27
2023-04-08T10:45:31.949Z,16.80
2023-04-08T10:48:14.132Z,18.40
2023-04-08T10:50:41.676Z,17.43
2023-04-08T10:53:09.220Z,17.80
2023-04-08T10:55:36.796Z,17.57
2023-04-08T10:58:07.253Z,16.10
2023-04-08T11:00:37.469Z,13.07
2023-04-08T11:03:05.416Z,16.03
2023-04-08T11:05:32.813Z,13.90
2023-04-08T11:08:00.357Z,12.57
2023-04-08T11:10:28.210Z,13.03
2023-04-08T11:12:55.735Z,14.90
2023-04-08T11:15:23.257Z,13.00
2023-04-08T11:17:50.845Z,10.83
2023-04-08T11:20:18.387Z,12.53
2023-04-08T11:22:45.932Z,13.07
2023-04-08T11:25:13.496Z,13.73
2023-04-08T11:27:41.035Z,12.13
2023-04-08T11:30:08.580Z,14.13
2023-04-08T11:32:36.162Z,12.20
2023-04-08T11:35:03.667Z,11.00
2023-04-08T11:37:37.129Z,11.07
2023-04-08T11:40:05.016Z,9.37
2023-04-08T11:42:32.505Z,12.43
2023-04-08T11:45:00.040Z,10.60
2023-04-08T11:47:33.652Z,10.53
2023-04-08T11:50:01.124Z,10.57
2023-04-08T11:52:49.572Z,10.32
2023-04-08T11:55:25.528Z,9.00
2023-04-08T11:57:53.047Z,9.43
2023-04-08T12:00:20.623Z,7.33
2023-04-08T12:02:48.310Z,11.20
2023-04-08T12:05:15.705Z,8.60
2023-04-08T12:07:43.298Z,8.97
2023-04-08T12:10:10.821Z,8.50
2023-04-08T12:12:38.378Z,17.87
2023-04-08T12:15:06.029Z,13.83
2023-04-08T12:17:33.616Z,9.50
2023-04-08T12:20:01.078Z,7.45
2023-04-08T12:22:28.666Z,7.27
2023-04-08T12:24:58.135Z,8.23
2023-04-08T12:27:23.749Z,6.62
2023-04-08T12:29:51.604Z,8.47
2023-04-08T12:32:19.117Z,6.67
2023-04-08T12:34:46.643Z,7.30
2023-04-08T12:37:14.497Z,8.07
2023-04-08T12:39:42.027Z,6.27
2023-04-08T12:42:09.562Z,6.27
2023-04-08T12:44:37.861Z,5.70
2023-04-08T12:47:05.438Z,6.53
2023-04-08T12:49:39.512Z,7.22
2023-04-08T12:52:00.507Z,4.90
2023-04-08T12:54:28.613Z,5.87
2023-04-08T12:56:56.039Z,6.30
2023-04-08T12:59:23.606Z,6.07
2023-04-08T13:01:51.195Z,4.90
2023-04-08T13:04:18.709Z,6.23
2023-04-08T13:06:46.251Z,5.80
2023-04-08T13:09:13.784Z,7.87
2023-04-08T13:11:41.307Z,5.17
2023-04-08T13:14:08.881Z,5.47
2023-04-08T13:16:36.441Z,6.68
2023-04-08T13:19:03.997Z,9.43
2023-04-08T13:21:31.585Z,5.77
2023-04-08T13:23:59.096Z,7.40
2023-04-08T13:26:26.671Z,6.20
2023-04-08T13:28:57.737Z,7.37
2023-04-08T13:31:21.761Z,5.90
2023-04-08T13:33:49.264Z,9.27
2023-04-08T13:36:16.947Z,7.23
2023-04-08T13:38:44.378Z,7.40
2023-04-08T13:41:11.902Z,8.33
2023-04-08T13:43:39.477Z,6.57
2023-04-08T13:46:07.060Z,7.37
2023-04-08T13:48:34.533Z,7.23
2023-04-08T13:51:02.097Z,6.47
2023-04-08T13:53:29.642Z,9.43
2023-04-08T13:55:57.168Z,9.00
2023-04-08T13:58:24.789Z,6.60
2023-04-08T14:00:52.390Z,8.17
2023-04-08T14:03:19.838Z,9.20
2023-04-08T14:05:47.376Z,9.73
2023-04-08T14:08:14.902Z,8.87
2023-04-08T14:10:42.534Z,10.63
2023-04-08T14:13:10.028Z,8.43
2023-04-08T14:15:37.565Z,10.07
2023-04-08T14:18:05.356Z,10.07
2023-04-08T14:20:32.902Z,9.32
2023-04-08T14:23:00.439Z,11.30
2023-04-08T14:25:27.972Z,7.70
2023-04-08T14:27:58.814Z,10.15
2023-04-08T14:30:23.108Z,9.30
2023-04-08T14:32:50.667Z,9.73
2023-04-08T14:35:18.230Z,12.40
2023-04-08T14:37:45.755Z,9.57
2023-04-08T14:40:13.287Z,11.77
2023-04-08T14:42:40.851Z,12.37
2023-04-08T14:45:08.499Z,11.57
2023-04-08T14:47:36.656Z,14.87
2023-04-08T14:50:04.242Z,13.57
2023-04-08T14:52:31.677Z,14.27
2023-04-08T14:54:59.213Z,12.63
2023-04-08T14:57:26.808Z,10.93
2023-04-08T14:59:54.374Z,13.55
2023-04-08T15:02:21.951Z,12.37
2023-04-08T15:04:49.485Z,12.27
2023-04-08T15:07:17.021Z,13.27
2023-04-08T15:09:44.547Z,12.37
2023-04-08T15:12:13.592Z,13.90
2023-04-08T15:14:39.700Z,13.37
2023-04-08T15:17:07.249Z,14.40
2023-04-08T15:19:34.818Z,15.70
2023-04-08T15:22:02.366Z,15.83
2023-04-08T15:24:29.905Z,14.60
2023-04-08T15:26:57.469Z,14.37
2023-04-08T15:29:25.000Z,14.00
2023-04-08T15:31:52.541Z,13.93
2023-04-08T15:34:20.121Z,14.00
2023-04-08T15:36:47.711Z,16.87
2023-04-08T15:39:15.212Z,14.37
2023-04-08T15:41:42.816Z,14.60
2023-04-08T15:44:10.360Z,15.97
2023-04-08T15:46:38.167Z,13.77
2023-04-08T15:49:05.606Z,15.60
2023-04-08T15:51:33.157Z,14.63
2023-04-08T15:54:00.684Z,13.40
2023-04-08T15:56:28.322Z,14.40
2023-04-08T15:58:55.839Z,16.02
2023-04-08T16:01:23.441Z,17.65
2023-04-08T16:03:51.309Z,13.73
2023-04-08T16:06:18.760Z,15.17
2023-04-08T16:08:46.395Z,14.77
2023-04-08T16:11:13.945Z,15.07
2023-04-08T16:13:41.483Z,15.17
2023-04-08T16:16:09.071Z,16.33
2023-04-08T16:18:36.629Z,14.77
2023-04-08T16:21:06.971Z,16.33
2023-04-08T16:23:34.502Z,15.87
2023-04-08T16:26:02.079Z,15.87
2023-04-08T16:28:29.607Z,19.00
2023-04-08T16:30:57.156Z,17.63
2023-04-08T16:33:24.743Z,17.53
2023-04-08T16:35:52.313Z,18.37
2023-04-08T16:38:19.818Z,17.95
2023-04-08T16:40:47.466Z,16.53
2023-04-08T16:43:15.732Z,15.53
2023-04-08T16:45:42.572Z,16.00
2023-04-08T16:48:10.128Z,16.23
2023-04-08T16:50:42.585Z,15.77
2023-04-08T16:53:08.020Z,15.13
2023-04-08T16:55:35.656Z,15.50
2023-04-08T16:58:03.199Z,17.37
2023-04-08T17:00:30.730Z,16.83
2023-04-08T17:02:58.712Z,15.67
2023-04-08T17:05:28.849Z,16.53
2023-04-08T17:07:59.402Z,16.63
2023-04-08T17:10:27.006Z,14.73
2023-04-08T17:12:54.558Z,17.10
2023-04-08T17:15:22.106Z,16.90
2023-04-08T17:17:49.776Z,15.23
2023-04-08T17:20:17.214Z,16.17
2023-04-08T17:22:44.756Z,16.73
2023-04-08T17:25:12.873Z,16.20
2023-04-08T17:27:40.411Z,17.05
2023-04-08T17:30:09.469Z,15.90
2023-04-08T17:32:36.375Z,17.83
2023-04-08T17:35:03.872Z,17.40
2023-04-08T17:37:31.440Z,18.05
2023-04-08T17:39:59.294Z,21.12
2023-04-08T17:42:26.820Z,19.35
2023-04-08T17:44:54.366Z,17.97
2023-04-08T17:47:21.979Z,20.47
2023-04-08T17:49:49.485Z,18.97
2023-04-08T17:52:17.631Z,19.33
2023-04-08T17:54:46.581Z,19.13
2023-04-08T17:57:14.105Z,21.20
2023-04-08T17:59:41.628Z,23.40
2023-04-08T18:02:09.258Z,21.57
2023-04-08T18:04:36.747Z,23.10
2023-04-08T18:07:04.272Z,21.97
2023-04-08T18:09:31.858Z,24.13
2023-04-08T18:11:59.404Z,26.20
2023-04-08T18:14:26.950Z,22.20
2023-04-08T18:16:54.554Z,24.40
2023-04-08T18:19:22.048Z,24.00
2023-04-08T18:21:49.588Z,25.10
2023-04-08T18:24:17.418Z,25.23
2023-04-08T18:26:45.418Z,23.40
2023-04-08T18:29:12.511Z,25.30
2023-04-08T18:31:40.104Z,26.57
2023-04-08T18:34:07.633Z,28.50
2023-04-08T18:36:35.182Z,28.38
2023-04-08T18:39:02.787Z,28.97
2023-04-08T18:41:30.368Z,31.27
2023-04-08T18:43:57.889Z,30.00
2023-04-08T18:46:25.457Z,30.83
2023-04-08T18:48:53.028Z,31.77
2023-04-08T18:51:20.573Z,30.70
2023-04-08T18:53:48.144Z,31.23
2023-04-08T18:56:15.711Z,30.05
2023-04-08T18:58:43.233Z,26.20
2023-04-08T19:01:10.793Z,26.23
2023-04-08T19:03:38.511Z,25.53
2023-04-08T19:06:05.934Z,24.13
2023-04-08T19:08:33.481Z,23.80
2023-04-08T19:11:01.112Z,25.57
2023-04-08T19:13:28.663Z,22.10
2023-04-08T19:15:56.249Z,24.60
2023-04-08T19:18:23.791Z,22.73
2023-04-08T19:20:51.330Z,23.27
2023-04-08T19:23:18.909Z,23.50
2023-04-08T19:25:46.449Z,21.47
2023-04-08T19:28:13.988Z,17.90
2023-04-08T19:30:41.527Z,18.73
2023-04-08T19:33:09.141Z,21.77
2023-04-08T19:35:36.985Z,21.00
2023-04-08T19:38:04.461Z,22.97
2023-04-08T19:40:32.037Z,21.13
2023-04-08T19:42:59.560Z,18.97
2023-04-08T19:45:27.133Z,21.83
2023-04-08T19:47:54.996Z,21.53
2023-04-08T19:50:22.507Z,19.60
2023-04-08T19:52:50.036Z,18.53
2023-04-08T19:55:17.653Z,20.58
2023-04-08T19:57:45.194Z,19.30
2023-04-08T20:00:14.240Z,20.03
2023-04-08T20:02:40.552Z,20.80
2023-04-08T20:05:07.886Z,20.15
2023-04-08T20:07:35.422Z,20.00
2023-04-08T20:10:03.046Z,14.27
2023-04-08T20:12:30.580Z,18.15
2023-04-08T20:14:58.124Z,18.60
2023-04-08T20:17:25.790Z,18.63
2023-04-08T20:19:53.265Z,17.83
2023-04-08T20:22:20.820Z,18.13
2023-04-08T20:24:48.679Z,18.27
2023-04-08T20:27:16.867Z,17.97
2023-04-08T20:29:44.340Z,17.73
2023-04-08T20:32:11.904Z,18.20
2023-04-08T20:34:39.441Z,17.00
2023-04-08T20:37:06.968Z,19.00
2023-04-08T20:39:34.567Z,18.60
2023-04-08T20:42:02.111Z,18.33
2023-04-08T20:44:29.986Z,18.53
2023-04-08T20:46:57.853Z,17.57
2023-04-08T20:49:25.330Z,15.20
2023-04-08T20:51:52.884Z,20.83
2023-04-08T20:54:20.479Z,19.17
2023-04-08T20:56:48.031Z,17.97
2023-04-08T20:59:15.582Z,18.77
2023-04-08T21:01:43.194Z,17.30
2023-04-08T21:04:10.741Z,17.65
2023-04-08T21:06:38.275Z,18.83
2023-04-08T21:09:06.106Z,17.30
2023-04-08T21:11:33.656Z,15.70
2023-04-08T21:14:01.204Z,16.70
2023-04-08T21:16:28.923Z,18.77
2023-04-08T21:18:56.606Z,17.03
2023-04-08T21:21:24.113Z,17.47
2023-04-08T21:23:51.693Z,21.00
2023-04-08T21:26:19.238Z,19.30
2023-04-08T21:28:46.786Z,22.40
2023-04-08T21:31:14.360Z,18.00
2023-04-08T21:33:41.913Z,17.00
2023-04-08T21:36:09.459Z,16.80
2023-04-08T21:38:37.015Z,17.03
2023-04-08T21:41:04.544Z,20.17
2023-04-08T21:43:32.100Z,18.03
2023-04-08T21:45:59.857Z,17.63
2023-04-08T21:48:27.341Z,18.70
2023-04-08T21:50:54.866Z,21.90
2023-04-08T21:53:23.192Z,19.10
2023-04-08T21:55:50.749Z,18.03
2023-04-08T21:58:18.270Z,18.37
2023-04-08T22:00:45.912Z,17.33
2023-04-08T22:03:13.539Z,19.20
2023-04-08T22:05:40.914Z,18.17
2023-04-08T22:08:08.492Z,18.47
2023-04-08T22:10:39.553Z,21.27
2023-04-08T22:13:06.911Z,20.07
2023-04-08T22:15:35.248Z,22.70
2023-04-08T22:18:02.834Z,22.20
2023-04-08T22:20:30.316Z,19.90
2023-04-08T22:22:58.656Z,21.77
2023-04-08T22:25:26.210Z,22.07
2023-04-08T22:27:53.751Z,21.50
2023-04-08T22:30:21.335Z,22.10
2023-04-08T22:32:48.917Z,23.50
2023-04-08T22:35:16.418Z,23.17
2023-04-08T22:37:43.982Z,20.17
2023-04-08T22:40:11.525Z,21.73
2023-04-08T22:42:39.067Z,24.45
2023-04-08T22:45:07.229Z,22.23
2023-04-08T22:47:34.813Z,23.10
2023-04-08T22:50:02.279Z,24.07
2023-04-08T22:52:29.857Z,27.65
2023-04-08T22:54:57.417Z,26.40
2023-04-08T22:57:24.969Z,28.15
2023-04-08T22:59:52.804Z,24.83
2023-04-08T23:02:20.859Z,26.47
2023-04-08T23:04:48.281Z,26.00
2023-04-08T23:07:16.149Z,30.10
2023-04-08T23:09:43.669Z,27.83
2023-04-08T23:12:11.211Z,23.90
2023-04-08T23:14:38.879Z,28.00
2023-04-08T23:17:06.418Z,32.20
2023-04-08T23:19:33.995Z,26.60
2023-04-08T23:22:01.855Z,28.23
2023-04-08T23:24:29.402Z,26.70
2023-04-08T23:26:56.927Z,30.05
2023-04-08T23:29:24.483Z,27.90
2023-04-08T23:31:52.027Z,24.50
2023-04-08T23:34:19.566Z,23.53
2023-04-08T23:36:47.392Z,26.10
2023-04-08T23:39:14.919Z,26.03
2023-04-08T23:41:42.459Z,26.70
2023-04-08T23:44:10.070Z,28.12
2023-04-08T23:46:37.688Z,30.63
2023-04-08T23:49:05.144Z,23.47
2023-04-08T23:51:32.740Z,23.37
2023-04-08T23:54:00.850Z,27.07
2023-04-08T23:56:28.301Z,27.73
2023-04-08T23:58:56.854Z,28.20
